createdAt,value
2023-02-06T00:01:33.963Z,66.47
2023-02-06T00:04:01.360Z,62.94
2023-02-06T00:06:28.707Z,51.52
2023-02-06T00:08:55.772Z,44.73
2023-02-06T00:11:23.304Z,41.21
2023-02-06T00:13:50.811Z,38.55
2023-02-06T00:16:17.788Z,35.31
2023-02-06T00:18:45.460Z,38.40
2023-02-06T00:21:13.180Z,41.90
2023-02-06T00:23:40.116Z,44.51
2023-02-06T00:26:08.405Z,46.75
2023-02-06T00:28:35.865Z,48.63
2023-02-06T00:31:05.864Z,50.12
2023-02-06T00:33:33.445Z,52.95
2023-02-06T00:36:00.853Z,54.91
2023-02-06T00:38:29.217Z,55.95
2023-02-06T00:40:56.867Z,67.21
2023-02-06T00:43:24.221Z,57.88
2023-02-06T00:45:52.395Z,48.34
2023-02-06T00:48:19.353Z,44.86
2023-02-06T00:50:49.362Z,42.48
2023-02-06T00:53:16.832Z,40.18
2023-02-06T00:55:43.781Z,37.17
2023-02-06T00:58:11.043Z,35.77
2023-02-06T01:00:40.864Z,39.46
2023-02-06T01:03:07.904Z,43.29
2023-02-06T01:05:35.980Z,47.72
2023-02-06T01:08:04.530Z,51.74
2023-02-06T01:10:32.305Z,54.09
2023-02-06T01:13:00.627Z,56.67
2023-02-06T01:15:27.888Z,56.10
2023-02-06T01:17:54.825Z,62.06
2023-02-06T01:20:24.962Z,67.99
2023-02-06T01:22:52.003Z,56.34
2023-02-06T01:25:19.353Z,47.80
2023-02-06T01:27:47.591Z,43.51
2023-02-06T01:30:15.133Z,40.44
2023-02-06T01:32:43.193Z,36.06
2023-02-06T01:35:11.572Z,36.80
2023-02-06T01:37:39.953Z,40.31
2023-02-06T01:40:11.749Z,43.44
2023-02-06T01:42:39.473Z,45.91
2023-02-06T01:45:26.072Z,48.01
2023-02-06T01:47:59.262Z,49.04
2023-02-06T01:50:26.414Z,50.61
2023-02-06T01:52:53.367Z,52.20
2023-02-06T01:55:20.426Z,53.54
2023-02-06T01:57:47.372Z,54.62
2023-02-06T02:00:15.339Z,61.46
2023-02-06T02:02:48.463Z,69.00
2023-02-06T02:05:18.366Z,55.94
2023-02-06T02:08:10.680Z,47.70
2023-02-06T02:10:38.451Z,42.83
2023-02-06T02:13:05.413Z,39.87
2023-02-06T02:15:43.915Z,35.82
2023-02-06T02:18:49.141Z,36.62
2023-02-06T02:21:37.888Z,40.92
2023-02-06T02:24:23.872Z,44.16
2023-02-06T02:27:09.957Z,46.42
2023-02-06T02:29:56.767Z,47.59
2023-02-06T02:32:45.510Z,50.14
2023-02-06T02:35:19.726Z,53.56
2023-02-06T02:38:07.859Z,57.91
2023-02-06T02:41:03.160Z,65.32
2023-02-06T02:43:37.703Z,66.16
2023-02-06T02:46:22.951Z,53.11
2023-02-06T02:48:53.255Z,45.69
2023-02-06T02:51:21.045Z,41.29
2023-02-06T02:53:48.091Z,38.29
2023-02-06T02:56:22.682Z,34.37
2023-02-06T02:59:03.276Z,37.17
2023-02-06T03:01:42.926Z,41.41
2023-02-06T03:04:18.368Z,44.06
2023-02-06T03:07:08.745Z,45.72
2023-02-06T03:09:48.900Z,48.57
2023-02-06T03:12:45.838Z,49.83
2023-02-06T03:18:19.277Z,51.84
2023-02-06T03:20:47.959Z,55.43
2023-02-06T03:23:21.139Z,68.13
2023-02-06T03:25:53.137Z,58.28
2023-02-06T03:28:28.748Z,47.79
2023-02-06T03:30:58.454Z,42.10
2023-02-06T03:33:33.775Z,38.95
2023-02-06T03:36:01.258Z,36.02
2023-02-06T03:38:28.377Z,39.89
2023-02-06T03:40:59.384Z,44.07
2023-02-06T03:43:29.752Z,47.10
2023-02-06T03:46:04.156Z,49.60
2023-02-06T03:48:38.978Z,53.05
2023-02-06T03:51:16.308Z,53.20
2023-02-06T03:53:45.826Z,53.82
2023-02-06T03:56:45.123Z,58.36
2023-02-06T03:59:13.018Z,69.87
2023-02-06T04:01:44.725Z,58.01
2023-02-06T04:04:15.821Z,47.44
2023-02-06T04:06:43.414Z,42.48
2023-02-06T04:09:10.333Z,39.44
2023-02-06T04:11:37.196Z,34.93
2023-02-06T04:14:04.042Z,36.90
2023-02-06T04:16:31.033Z,40.39
2023-02-06T04:18:58.008Z,43.33
2023-02-06T04:21:24.838Z,45.36
2023-02-06T04:23:51.680Z,47.15
2023-02-06T04:26:18.585Z,49.16
2023-02-06T04:28:47.132Z,50.58
2023-02-06T04:31:14.036Z,51.93
2023-02-06T04:33:41.709Z,52.86
2023-02-06T04:36:08.828Z,58.07
2023-02-06T04:38:35.712Z,65.98
2023-02-06T04:41:07.129Z,54.95
2023-02-06T04:43:34.383Z,46.42
2023-02-06T04:46:01.340Z,41.40
2023-02-06T04:48:28.429Z,38.69
2023-02-06T04:50:55.516Z,35.05
2023-02-06T04:53:22.373Z,35.14
2023-02-06T04:55:49.267Z,38.49
2023-02-06T04:58:16.118Z,41.63
2023-02-06T05:00:42.976Z,43.64
2023-02-06T05:03:09.772Z,45.34
2023-02-06T05:05:36.773Z,48.04
2023-02-06T05:08:03.806Z,49.25
2023-02-06T05:10:30.752Z,50.45
2023-02-06T05:12:57.541Z,52.13
2023-02-06T05:15:24.543Z,64.18
2023-02-06T05:17:51.464Z,60.29
2023-02-06T05:20:19.271Z,49.37
2023-02-06T05:22:46.167Z,43.62
2023-02-06T05:25:13.071Z,39.56
2023-02-06T05:27:39.886Z,37.53
2023-02-06T05:30:07.121Z,33.69
2023-02-06T05:32:33.981Z,34.75
2023-02-06T05:35:00.791Z,38.82
2023-02-06T05:37:27.639Z,41.41
2023-02-06T05:39:54.525Z,45.53
2023-02-06T05:42:21.375Z,50.99
2023-02-06T05:44:48.195Z,53.91
2023-02-06T05:47:15.023Z,55.81
2023-02-06T05:49:44.169Z,64.23
2023-02-06T05:52:11.750Z,64.63
2023-02-06T05:54:38.532Z,51.91
2023-02-06T05:57:05.447Z,43.97
2023-02-06T05:59:32.371Z,40.34
2023-02-06T06:01:59.499Z,37.65
2023-02-06T06:04:26.480Z,35.05
2023-02-06T06:06:53.389Z,33.41
2023-02-06T06:09:20.320Z,36.46
2023-02-06T06:11:47.955Z,39.79
2023-02-06T06:14:14.781Z,42.64
2023-02-06T06:16:42.016Z,44.81
2023-02-06T06:19:09.488Z,46.83
2023-02-06T06:21:36.734Z,48.22
2023-02-06T06:24:03.861Z,49.33
2023-02-06T06:26:30.974Z,50.68
2023-02-06T06:28:57.842Z,52.59
2023-02-06T06:31:25.020Z,63.83
2023-02-06T06:33:52.853Z,53.81
2023-02-06T06:36:19.785Z,44.27
2023-02-06T06:38:46.642Z,41.31
2023-02-06T06:41:13.610Z,39.69
2023-02-06T06:43:40.974Z,38.01
2023-02-06T06:46:08.579Z,35.22
2023-02-06T06:48:37.319Z,36.33
2023-02-06T06:51:06.041Z,42.94
2023-02-06T06:53:33.252Z,45.65
2023-02-06T06:56:04.770Z,50.06
2023-02-06T06:58:32.507Z,53.02
2023-02-06T07:00:59.483Z,54.92
2023-02-06T07:03:26.819Z,55.79
2023-02-06T07:05:53.908Z,59.74
2023-02-06T07:08:21.130Z,67.16
2023-02-06T07:10:48.863Z,63.57
2023-02-06T07:13:15.863Z,49.59
2023-02-06T07:15:43.519Z,49.30
2023-02-06T07:18:11.847Z,52.78
2023-02-06T07:20:39.073Z,55.40
2023-02-06T07:23:06.498Z,59.24
2023-02-06T07:25:33.542Z,61.85
2023-02-06T07:28:00.639Z,67.32
2023-02-06T07:30:27.667Z,58.61
2023-02-06T07:32:54.589Z,49.86
2023-02-06T07:35:21.495Z,51.51
2023-02-06T07:37:50.665Z,55.83
2023-02-06T07:40:17.626Z,57.26
2023-02-06T07:42:44.525Z,60.14
2023-02-06T07:45:34.435Z,58.75
2023-02-06T07:48:04.465Z,59.83
2023-02-06T07:50:32.013Z,67.02
2023-02-06T07:52:59.428Z,63.83
2023-02-06T07:55:27.860Z,51.73
2023-02-06T07:57:55.792Z,49.07
2023-02-06T08:00:25.538Z,51.33
2023-02-06T08:02:53.048Z,52.37
2023-02-06T08:05:20.090Z,50.70
2023-02-06T08:07:47.392Z,53.86
2023-02-06T08:10:14.330Z,54.86
2023-02-06T08:12:41.290Z,56.06
2023-02-06T08:15:08.867Z,56.98
2023-02-06T08:17:36.388Z,59.58
2023-02-06T08:20:03.627Z,60.67
2023-02-06T08:22:30.687Z,60.40
2023-02-06T08:24:57.543Z,65.69
2023-02-06T08:27:25.896Z,66.93
2023-02-06T08:29:53.255Z,50.37
2023-02-06T08:32:20.397Z,44.33
2023-02-06T08:34:47.482Z,43.69
2023-02-06T08:37:15.395Z,42.90
2023-02-06T08:39:42.380Z,41.83
2023-02-06T08:42:09.304Z,41.76
2023-02-06T08:44:36.390Z,41.60
2023-02-06T08:47:10.039Z,39.29
2023-02-06T08:49:38.590Z,37.59
2023-02-06T08:52:06.047Z,36.64
2023-02-06T08:54:35.288Z,37.87
2023-02-06T08:57:03.405Z,37.98
2023-02-06T08:59:31.266Z,35.74
2023-02-06T09:01:58.640Z,36.43
2023-02-06T09:04:25.691Z,34.40
2023-02-06T09:06:52.656Z,34.18
2023-02-06T09:09:19.833Z,34.87
2023-02-06T09:11:47.114Z,33.55
2023-02-06T09:14:16.282Z,32.91
2023-02-06T09:16:44.365Z,31.90
2023-02-06T09:19:11.422Z,30.70
2023-02-06T09:21:38.599Z,31.77
2023-02-06T09:24:08.655Z,31.16
2023-02-06T09:26:40.561Z,29.23
2023-02-06T09:29:12.430Z,28.42
2023-02-06T09:31:42.685Z,28.36
2023-02-06T09:34:13.001Z,27.15
2023-02-06T09:36:40.840Z,24.89
2023-02-06T09:39:09.750Z,24.36
2023-02-06T09:41:44.814Z,24.06
2023-02-06T09:44:27.393Z,23.99
2023-02-06T09:47:15.140Z,24.63
2023-02-06T09:49:52.275Z,23.30
2023-02-06T09:52:59.542Z,24.65
2023-02-06T09:55:26.490Z,24.88
2023-02-06T09:58:16.442Z,24.32
2023-02-06T10:00:49.546Z,21.73
2023-02-06T10:03:25.708Z,21.73
2023-02-06T10:06:09.235Z,22.52
2023-02-06T10:08:42.401Z,22.96
2023-02-06T10:11:20.475Z,21.74
2023-02-06T10:13:57.447Z,21.57
2023-02-06T10:16:34.941Z,20.85
2023-02-06T10:19:14.733Z,21.16
2023-02-06T10:22:12.900Z,20.09
2023-02-06T10:25:16.230Z,19.02
2023-02-06T10:27:45.853Z,18.58
2023-02-06T10:30:26.197Z,17.86
2023-02-06T10:33:09.728Z,18.23
2023-02-06T10:35:52.099Z,18.83
2023-02-06T10:38:32.693Z,18.43
2023-02-06T10:41:20.093Z,18.65
2023-02-06T10:43:58.041Z,18.38
2023-02-06T10:46:48.567Z,18.89
2023-02-06T10:49:48.109Z,19.06
2023-02-06T10:52:22.077Z,18.62
2023-02-06T10:55:18.293Z,19.33
2023-02-06T10:57:47.985Z,20.59
2023-02-06T11:00:26.476Z,20.43
2023-02-06T11:03:07.283Z,19.32
2023-02-06T11:05:36.309Z,19.17
2023-02-06T11:08:13.993Z,18.87
2023-02-06T11:10:41.128Z,18.92
2023-02-06T11:13:29.817Z,18.53
2023-02-06T11:16:08.749Z,18.83
2023-02-06T11:18:39.905Z,17.73
2023-02-06T11:21:09.824Z,16.61
2023-02-06T11:23:36.865Z,17.53
2023-02-06T11:26:14.765Z,17.87
2023-02-06T11:28:52.761Z,15.69
2023-02-06T11:31:39.631Z,15.60
2023-02-06T11:34:06.865Z,15.14
2023-02-06T11:36:38.737Z,15.98
2023-02-06T11:39:23.836Z,17.90
2023-02-06T11:41:59.843Z,17.09
2023-02-06T11:44:29.432Z,16.55
2023-02-06T11:46:57.412Z,16.13
2023-02-06T11:49:32.001Z,16.63
2023-02-06T11:52:00.965Z,15.78
2023-02-06T11:54:30.547Z,15.27
2023-02-06T11:57:04.484Z,14.98
2023-02-06T11:59:34.728Z,14.00
2023-02-06T12:02:06.642Z,13.94
2023-02-06T12:04:41.721Z,14.19
2023-02-06T12:07:16.979Z,15.32
2023-02-06T12:09:44.116Z,16.67
2023-02-06T12:12:24.012Z,18.17
2023-02-06T12:15:43.684Z,19.84
2023-02-06T12:18:21.961Z,22.10
2023-02-06T12:21:06.700Z,22.83
2023-02-06T12:23:44.216Z,25.35
2023-02-06T12:26:15.014Z,26.32
2023-02-06T12:28:44.680Z,28.40
2023-02-06T12:31:59.435Z,29.86
2023-02-06T12:34:32.833Z,29.79
2023-02-06T12:37:16.325Z,31.13
2023-02-06T12:39:44.028Z,33.01
2023-02-06T12:42:37.206Z,34.14
2023-02-06T12:45:27.724Z,33.44
2023-02-06T12:48:12.148Z,34.88
2023-02-06T12:50:49.527Z,36.26
2023-02-06T12:53:30.645Z,36.52
2023-02-06T12:56:14.558Z,36.73
2023-02-06T12:58:44.684Z,36.50
2023-02-06T13:01:27.979Z,37.06
2023-02-06T13:04:00.582Z,37.13
2023-02-06T13:06:32.746Z,38.65
2023-02-06T13:09:03.028Z,38.27
2023-02-06T13:11:35.848Z,40.23
2023-02-06T13:14:25.820Z,39.86
2023-02-06T13:17:11.972Z,40.20
2023-02-06T13:19:41.922Z,39.43
2023-02-06T13:22:08.697Z,41.54
2023-02-06T13:24:37.411Z,42.06
2023-02-06T13:27:07.214Z,41.73
2023-02-06T13:29:40.157Z,41.13
2023-02-06T13:32:18.638Z,40.78
2023-02-06T13:34:54.821Z,41.37
2023-02-06T13:37:21.784Z,42.04
2023-02-06T13:39:49.688Z,42.31
2023-02-06T13:42:52.245Z,42.78
2023-02-06T13:45:26.615Z,42.34
2023-02-06T13:48:32.086Z,42.28
2023-02-06T13:51:09.528Z,42.48
2023-02-06T13:53:58.551Z,41.90
2023-02-06T13:56:31.661Z,42.58
2023-02-06T13:59:06.188Z,44.05
2023-02-06T14:01:34.152Z,44.83
2023-02-06T14:06:40.479Z,44.94
2023-02-06T14:09:51.011Z,44.70
2023-02-06T14:12:46.014Z,44.12
2023-02-06T14:15:50.790Z,44.74
2023-02-06T14:18:22.221Z,44.31
2023-02-06T14:20:52.930Z,45.01
2023-02-06T14:23:52.499Z,44.68
2023-02-06T14:26:39.124Z,45.07
2023-02-06T14:29:30.924Z,44.66
2023-02-06T14:32:31.042Z,44.36
2023-02-06T14:35:27.444Z,43.82
2023-02-06T14:38:16.305Z,43.44
2023-02-06T14:40:45.304Z,44.13
2023-02-06T14:43:18.307Z,44.51
2023-02-06T14:46:05.399Z,44.97
2023-02-06T14:48:39.747Z,45.10
2023-02-06T14:51:09.210Z,45.76
2023-02-06T14:53:39.030Z,45.58
2023-02-06T14:56:14.264Z,45.43
2023-02-06T14:58:46.537Z,44.85
2023-02-06T15:01:43.005Z,45.72
2023-02-06T15:04:24.753Z,46.12
2023-02-06T15:07:02.122Z,46.70
2023-02-06T15:09:33.370Z,47.32
2023-02-06T15:12:03.305Z,47.71
2023-02-06T15:14:33.809Z,47.31
2023-02-06T15:17:02.945Z,48.19
2023-02-06T15:19:32.690Z,48.83
2023-02-06T15:22:06.510Z,49.03
2023-02-06T15:25:02.678Z,48.55
2023-02-06T15:27:32.406Z,48.24
2023-02-06T15:30:01.700Z,50.71
2023-02-06T15:32:39.260Z,50.06
2023-02-06T15:35:19.139Z,52.03
2023-02-06T15:37:46.256Z,52.17
2023-02-06T15:40:13.849Z,50.20
2023-02-06T15:42:41.839Z,50.81
2023-02-06T15:45:18.304Z,51.24
2023-02-06T15:47:46.386Z,52.36
2023-02-06T15:50:19.481Z,53.34
2023-02-06T15:52:47.747Z,55.10
2023-02-06T15:55:26.726Z,57.38
2023-02-06T15:57:55.991Z,58.34
2023-02-06T16:00:33.076Z,59.54
2023-02-06T16:03:08.084Z,59.24
2023-02-06T16:05:41.076Z,59.88
2023-02-06T16:08:17.804Z,60.23
2023-02-06T16:10:50.526Z,60.84
2023-02-06T16:13:22.553Z,67.85
2023-02-06T16:16:08.984Z,69.36
2023-02-06T16:18:38.806Z,53.36
2023-02-06T16:21:18.152Z,49.58
2023-02-06T16:23:46.704Z,51.26
2023-02-06T16:26:28.570Z,51.89
2023-02-06T16:29:00.911Z,55.43
2023-02-06T16:31:31.035Z,57.31
2023-02-06T16:34:04.814Z,56.92
2023-02-06T16:36:33.815Z,57.68
2023-02-06T16:39:04.364Z,58.42
2023-02-06T16:41:38.468Z,59.77
2023-02-06T16:44:13.693Z,61.02
2023-02-06T16:46:41.073Z,69.35
2023-02-06T16:49:20.128Z,62.44
2023-02-06T16:51:49.293Z,49.60
2023-02-06T16:54:23.618Z,50.46
2023-02-06T16:56:52.209Z,52.99
2023-02-06T16:59:20.167Z,54.30
2023-02-06T17:01:47.590Z,56.11
2023-02-06T17:04:15.344Z,58.23
2023-02-06T17:06:45.302Z,59.90
2023-02-06T17:09:15.236Z,68.48
2023-02-06T17:11:42.386Z,69.66
2023-02-06T17:14:10.698Z,56.48
2023-02-06T17:16:37.889Z,56.49
2023-02-06T17:19:05.081Z,52.02
2023-02-06T17:21:34.085Z,52.37
2023-02-06T17:24:01.434Z,54.29
2023-02-06T17:26:29.104Z,55.76
2023-02-06T17:28:56.561Z,59.29
2023-02-06T17:31:23.974Z,69.46
2023-02-06T17:33:51.397Z,66.79
2023-02-06T17:36:29.635Z,52.06
2023-02-06T17:39:00.961Z,50.39
2023-02-06T17:41:28.421Z,53.08
2023-02-06T17:43:55.665Z,54.96
2023-02-06T17:46:23.513Z,57.32
2023-02-06T17:48:51.108Z,58.54
2023-02-06T17:51:18.166Z,66.06
2023-02-06T17:53:45.210Z,66.34
2023-02-06T17:56:13.403Z,54.38
2023-02-06T17:58:41.684Z,51.14
2023-02-06T18:01:14.017Z,54.06
2023-02-06T18:03:42.349Z,58.25
2023-02-06T18:06:10.268Z,61.50
2023-02-06T18:08:37.351Z,68.28
2023-02-06T18:11:13.956Z,63.52
2023-02-06T18:13:43.370Z,54.66
2023-02-06T18:16:15.848Z,53.96
2023-02-06T18:18:44.237Z,56.74
2023-02-06T18:21:12.091Z,58.59
2023-02-06T18:23:40.142Z,60.45
2023-02-06T18:26:09.665Z,67.54
2023-02-06T18:28:37.930Z,69.53
2023-02-06T18:31:05.748Z,60.83
2023-02-06T18:33:35.627Z,52.38
2023-02-06T18:36:07.185Z,52.15
2023-02-06T18:38:34.416Z,57.26
2023-02-06T18:41:05.786Z,60.58
2023-02-06T18:43:34.046Z,66.76
2023-02-06T18:46:07.272Z,66.53
2023-02-06T18:48:34.802Z,60.04
2023-02-06T18:51:07.077Z,53.39
2023-02-06T18:53:34.547Z,54.49
2023-02-06T18:56:02.105Z,57.35
2023-02-06T18:58:29.163Z,57.94
2023-02-06T19:00:56.631Z,65.30
2023-02-06T19:03:23.880Z,67.86
2023-02-06T19:05:51.027Z,61.44
2023-02-06T19:08:18.098Z,53.88
2023-02-06T19:10:45.658Z,53.29
2023-02-06T19:13:12.707Z,57.65
2023-02-06T19:15:39.774Z,59.35
2023-02-06T19:18:08.273Z,65.31
2023-02-06T19:20:35.848Z,66.50
2023-02-06T19:23:03.067Z,61.68
2023-02-06T19:25:31.140Z,55.91
2023-02-06T19:27:58.172Z,55.78
2023-02-06T19:30:25.195Z,56.76
2023-02-06T19:32:52.593Z,60.35
2023-02-06T19:35:20.079Z,66.44
2023-02-06T19:37:47.635Z,66.79
2023-02-06T19:40:14.690Z,61.70
2023-02-06T19:42:41.733Z,56.80
2023-02-06T19:45:12.071Z,55.68
2023-02-06T19:47:39.229Z,57.51
2023-02-06T19:50:06.781Z,59.60
2023-02-06T19:52:35.565Z,65.42
2023-02-06T19:55:03.086Z,68.99
2023-02-06T19:57:30.200Z,63.02
2023-02-06T19:59:57.100Z,58.15
2023-02-06T20:02:24.098Z,56.87
2023-02-06T20:04:51.266Z,58.26
2023-02-06T20:07:18.272Z,58.71
2023-02-06T20:09:45.472Z,61.00
2023-02-06T20:12:12.933Z,69.82
2023-02-06T20:14:40.488Z,67.80
2023-02-06T20:17:07.608Z,62.98
2023-02-06T20:19:35.520Z,59.91
2023-02-06T20:22:03.381Z,54.49
2023-02-06T20:24:32.419Z,53.76
2023-02-06T20:27:02.140Z,55.63
2023-02-06T20:29:32.321Z,58.23
2023-02-06T20:32:00.366Z,60.44
2023-02-06T20:34:28.747Z,66.05
2023-02-06T20:36:56.142Z,68.54
2023-02-06T20:39:23.798Z,62.72
2023-02-06T20:41:51.183Z,59.47
2023-02-06T20:44:20.278Z,54.28
2023-02-06T20:46:47.749Z,52.99
2023-02-06T20:49:17.895Z,55.72
2023-02-06T20:51:45.067Z,58.29
2023-02-06T20:54:12.752Z,60.78
2023-02-06T20:56:40.694Z,60.87
2023-02-06T20:59:09.112Z,67.40
2023-02-06T21:01:36.444Z,70.36
2023-02-06T21:04:08.624Z,66.89
2023-02-06T21:06:37.684Z,63.30
2023-02-06T21:09:06.199Z,59.48
2023-02-06T21:11:38.015Z,54.90
2023-02-06T21:14:07.243Z,56.70
2023-02-06T21:16:38.044Z,59.27
2023-02-06T21:19:07.546Z,60.51
2023-02-06T21:21:35.430Z,65.41
2023-02-06T21:24:02.473Z,66.46
2023-02-06T21:26:30.641Z,61.37
2023-02-06T21:29:00.411Z,55.08
2023-02-06T21:31:36.940Z,53.74
2023-02-06T21:34:17.518Z,56.36
2023-02-06T21:36:45.595Z,58.95
2023-02-06T21:39:21.356Z,61.44
2023-02-06T21:41:52.176Z,66.50
2023-02-06T21:44:23.404Z,68.47
2023-02-06T21:46:51.622Z,60.57
2023-02-06T21:49:19.973Z,51.93
2023-02-06T21:51:46.938Z,52.16
2023-02-06T21:54:14.203Z,53.92
2023-02-06T21:56:41.341Z,55.39
2023-02-06T21:59:10.091Z,57.39
2023-02-06T22:01:40.937Z,59.50
2023-02-06T22:04:09.602Z,60.67
2023-02-06T22:06:37.745Z,66.28
2023-02-06T22:09:10.820Z,71.68
2023-02-06T22:11:39.952Z,62.67
2023-02-06T22:14:15.731Z,51.70
2023-02-06T22:16:43.463Z,49.91
2023-02-06T22:19:11.032Z,54.64
2023-02-06T22:21:38.282Z,58.57
2023-02-06T22:24:07.391Z,61.91
2023-02-06T22:26:38.965Z,67.23
2023-02-06T22:29:10.184Z,64.21
2023-02-06T22:31:41.057Z,53.57
2023-02-06T22:34:12.398Z,53.77
2023-02-06T22:36:39.973Z,58.26
2023-02-06T22:39:08.719Z,60.76
2023-02-06T22:41:39.561Z,65.51
2023-02-06T22:44:07.125Z,65.05
2023-02-06T22:46:37.365Z,55.62
2023-02-06T22:49:08.079Z,53.57
2023-02-06T22:51:35.952Z,55.01
2023-02-06T22:54:03.602Z,57.84
2023-02-06T22:56:36.290Z,60.13
2023-02-06T22:59:12.565Z,65.56
2023-02-06T23:01:44.148Z,65.78
2023-02-06T23:04:15.468Z,59.55
2023-02-06T23:06:43.556Z,51.01
2023-02-06T23:09:15.300Z,51.92
2023-02-06T23:11:42.357Z,54.76
2023-02-06T23:14:12.279Z,58.77
2023-02-06T23:16:39.740Z,58.75
2023-02-06T23:19:07.814Z,65.97
2023-02-06T23:21:39.372Z,65.45
2023-02-06T23:24:08.513Z,55.52
2023-02-06T23:26:35.971Z,54.02
2023-02-06T23:29:05.773Z,57.30
2023-02-06T23:31:33.475Z,61.67
2023-02-06T23:34:01.083Z,65.82
2023-02-06T23:36:28.755Z,58.97
2023-02-06T23:38:56.002Z,54.69
2023-02-06T23:41:25.526Z,57.35
2023-02-06T23:43:55.745Z,60.55
2023-02-06T23:46:24.006Z,66.73
2023-02-06T23:48:51.887Z,59.70
2023-02-06T23:51:20.853Z,53.20
2023-02-06T23:53:48.763Z,55.50
2023-02-06T23:56:19.760Z,59.09
2023-02-06T23:58:47.382Z,60.28
